Time,TemperatureF,DewpointF,PressureIn,WindDirection,WindDirectionDegrees,WindSpeedMPH,WindSpeedGustMPH,Humidity,HourlyPrecipIn,Conditions,Clouds,dailyrainin,SoftwareType,DateUTC
2013-04-15 00:02:00,34.6,32.7,28.81,SE,135,2.0,4.9,93,0.00,,,0.00,WUHU216HW,2013-04-15 05:02:00,
2013-04-15 00:07:00,34.6,32.7,28.80,SSE,158,3.8,3.8,93,0.00,,,0.00,WUHU216HW,2013-04-15 05:07:00,
2013-04-15 00:10:00,34.7,32.9,28.80,SSE,158,2.2,2.2,93,0.00,,,0.00,WUHU216HW,2013-04-15 05:10:00,
2013-04-15 00:12:00,34.7,32.9,28.80,SSE,158,2.2,3.8,93,0.00,,,0.00,WUHU216HW,2013-04-15 05:12:00,
2013-04-15 00:17:00,34.7,32.9,28.80,SSE,158,2.2,2.2,93,0.00,,,0.00,WUHU216HW,2013-04-15 05:17:00,
2013-04-15 00:40:00,35.3,33.1,28.81,ESE,113,1.6,1.6,92,0.00,,,0.00,WUHU216HW,2013-04-15 05:40:00,
2013-04-15 00:45:00,35.3,33.1,28.81,NNW,338,1.8,1.8,92,0.00,,,0.00,WUHU216HW,2013-04-15 05:45:00,
2013-04-15 00:50:00,35.6,33.5,28.81,NE,45,2.2,2.2,92,0.00,,,0.00,WUHU216HW,2013-04-15 05:50:00,
2013-04-15 00:55:00,35.6,33.5,28.81,NNW,338,1.8,2.2,92,0.00,,,0.00,WUHU216HW,2013-04-15 05:55:00,
2013-04-15 01:00:00,35.6,33.2,28.81,WNW,293,0.7,3.8,91,0.00,,,0.00,WUHU216HW,2013-04-15 06:00:00,
2013-04-15 01:05:00,35.6,32.9,28.81,SSE,158,0.2,5.4,90,0.00,,,0.00,WUHU216HW,2013-04-15 06:05:00,
2013-04-15 01:10:00,35.6,32.9,28.81,SE,135,6.3,6.3,90,0.00,,,0.00,WUHU216HW,2013-04-15 06:10:00,
2013-04-15 01:15:00,35.6,32.9,28.82,South,180,2.2,6.3,90,0.00,,,0.00,WUHU216HW,2013-04-15 06:15:00,
2013-04-15 01:20:00,35.6,32.9,28.82,SE,135,0.9,3.6,90,0.00,,,0.00,WUHU216HW,2013-04-15 06:20:00,
2013-04-15 01:25:00,35.5,32.5,28.82,ESE,113,1.6,3.6,89,0.00,,,0.00,WUHU216HW,2013-04-15 06:25:00,
2013-04-15 01:30:00,35.3,32.3,28.81,NNW,338,1.3,4.3,89,0.00,,,0.00,WUHU216HW,2013-04-15 06:30:00,
2013-04-15 01:35:00,35.3,32.3,28.81,NNE,23,1.1,4.3,89,0.00,,,0.00,WUHU216HW,2013-04-15 06:35:00,
2013-04-15 01:40:00,35.1,32.1,28.81,NE,45,1.1,4.7,89,0.00,,,0.00,WUHU216HW,2013-04-15 06:40:00,
2013-04-15 01:45:00,34.9,32.0,28.81,NNW,338,0.7,4.7,89,0.00,,,0.00,WUHU216HW,2013-04-15 06:45:00,
2013-04-15 01:50:00,34.9,32.0,28.81,NW,315,0.9,3.4,89,0.00,,,0.00,WUHU216HW,2013-04-15 06:50:00,
2013-04-15 01:55:00,34.9,31.7,28.80,North,0,0.9,3.4,88,0.00,,,0.00,WUHU216HW,2013-04-15 06:55:00,
2013-04-15 02:00:00,34.7,31.5,28.80,North,0,0.4,6.0,88,0.00,,,0.00,WUHU216HW,2013-04-15 07:00:00,
2013-04-15 02:05:00,34.6,31.3,28.80,East,90,1.6,6.0,88,0.00,,,0.00,WUHU216HW,2013-04-15 07:05:00,
2013-04-15 02:11:00,34.4,30.8,28.80,NW,315,1.1,3.1,87,0.00,,,0.00,WUHU216HW,2013-04-15 07:11:00,
2013-04-15 02:17:00,34.4,30.8,28.80,SE,135,0.2,2.0,87,0.00,,,0.00,WUHU216HW,2013-04-15 07:17:00,
2013-04-15 02:23:00,34.2,30.3,28.80,SSW,203,2.5,2.9,86,0.00,,,0.00,WUHU216HW,2013-04-15 07:23:00,
2013-04-15 02:29:00,34.2,30.3,28.80,WSW,248,0.9,2.9,86,0.00,,,0.00,WUHU216HW,2013-04-15 07:29:00,
2013-04-15 02:41:00,34.2,30.1,28.80,NW,315,1.3,6.9,85,0.00,,,0.00,WUHU216HW,2013-04-15 07:41:00,
2013-04-15 02:46:00,34.2,30.1,28.80,NE,45,0.4,6.9,85,0.00,,,0.00,WUHU216HW,2013-04-15 07:46:00,
2013-04-15 02:48:00,34.2,30.3,28.80,WSW,248,0.4,6.9,86,0.00,,,0.00,WUHU216HW,2013-04-15 07:48:00,
2013-04-15 02:49:00,34.2,30.3,28.80,NE,45,0.2,6.9,86,0.00,,,0.00,WUHU216HW,2013-04-15 07:49:00,
2013-04-15 02:52:00,34.2,30.3,28.81,South,180,2.5,2.5,86,0.00,,,0.00,WUHU216HW,2013-04-15 07:52:00,
2013-04-15 02:57:00,34.2,30.3,28.80,East,90,0.7,2.9,86,0.00,,,0.00,WUHU216HW,2013-04-15 07:57:00,
2013-04-15 03:02:00,34.2,30.1,28.81,ENE,68,3.4,3.4,85,0.00,,,0.00,WUHU216HW,2013-04-15 08:02:00,
2013-04-15 03:07:00,34.2,30.1,28.81,NW,315,1.6,5.6,85,0.00,,,0.00,WUHU216HW,2013-04-15 08:07:00,
2013-04-15 03:12:00,34.2,29.8,28.81,North,0,1.8,6.9,84,0.00,,,0.00,WUHU216HW,2013-04-15 08:12:00,
2013-04-15 03:17:00,34.0,29.6,28.81,North,0,4.7,6.9,84,0.00,,,0.00,WUHU216HW,2013-04-15 08:17:00,
2013-04-15 03:22:00,34.0,29.0,28.82,NNE,23,3.8,4.7,82,0.00,,,0.00,WUHU216HW,2013-04-15 08:22:00,
2013-04-15 03:27:00,34.0,29.4,28.82,NNW,338,3.4,3.8,83,0.00,,,0.00,WUHU216HW,2013-04-15 08:27:00,
2013-04-15 03:33:00,34.2,29.5,28.82,WSW,248,3.1,3.4,83,0.00,,,0.00,WUHU216HW,2013-04-15 08:33:00,
2013-04-15 03:36:00,34.2,29.5,28.82,West,270,3.4,3.4,83,0.00,,,0.00,WUHU216HW,2013-04-15 08:36:00,
2013-04-15 03:40:00,34.2,29.2,28.82,NW,315,5.4,6.5,82,0.00,,,0.00,WUHU216HW,2013-04-15 08:40:00,
2013-04-15 03:45:00,33.8,27.9,28.82,WNW,293,4.5,6.9,79,0.00,,,0.00,WUHU216HW,2013-04-15 08:45:00,
2013-04-15 03:50:00,33.5,27.6,28.82,NE,45,2.0,6.9,79,0.00,,,0.00,WUHU216HW,2013-04-15 08:50:00,
2013-04-15 03:55:00,33.3,27.1,28.82,NNE,23,2.5,8.3,78,0.00,,,0.00,WUHU216HW,2013-04-15 08:55:00,
2013-04-15 04:00:00,33.1,27.3,28.82,West,270,5.6,8.3,79,0.00,,,0.00,WUHU216HW,2013-04-15 09:00:00,
2013-04-15 04:05:00,32.9,27.5,28.82,NNE,23,1.6,6.5,80,0.00,,,0.00,WUHU216HW,2013-04-15 09:05:00,
2013-04-15 04:10:00,32.9,27.5,28.82,SW,225,3.6,5.4,80,0.00,,,0.00,WUHU216HW,2013-04-15 09:10:00,
2013-04-15 04:15:00,32.9,27.5,28.82,NW,315,3.8,5.6,80,0.00,,,0.00,WUHU216HW,2013-04-15 09:15:00,
2013-04-15 04:20:00,33.1,27.6,28.82,NW,315,3.4,6.7,80,0.00,,,0.00,WUHU216HW,2013-04-15 09:20:00,
2013-04-15 04:25:00,33.1,27.6,28.82,NNW,338,2.5,6.7,80,0.00,,,0.00,WUHU216HW,2013-04-15 09:25:00,
2013-04-15 04:30:00,33.1,27.6,28.82,SW,225,6.9,6.9,80,0.00,,,0.00,WUHU216HW,2013-04-15 09:30:00,
2013-04-15 04:35:00,32.9,27.1,28.82,WNW,293,4.7,6.9,79,0.00,,,0.00,WUHU216HW,2013-04-15 09:35:00,
2013-04-15 04:40:00,32.9,27.1,28.82,West,270,3.6,6.9,79,0.00,,,0.00,WUHU216HW,2013-04-15 09:40:00,
2013-04-15 04:45:00,32.8,27.3,28.82,NNW,338,2.2,6.3,80,0.00,,,0.00,WUHU216HW,2013-04-15 09:45:00,
2013-04-15 04:50:00,32.8,27.0,28.82,NW,315,1.3,8.5,79,0.00,,,0.00,WUHU216HW,2013-04-15 09:50:00,
2013-04-15 04:55:00,32.8,27.0,28.82,NW,315,5.6,8.5,79,0.00,,,0.00,WUHU216HW,2013-04-15 09:55:00,
2013-04-15 05:00:00,32.8,27.0,28.82,NW,315,5.1,8.9,79,0.00,,,0.00,WUHU216HW,2013-04-15 10:00:00,
2013-04-15 05:05:00,32.8,27.0,28.82,WSW,248,4.0,8.9,79,0.00,,,0.00,WUHU216HW,2013-04-15 10:05:00,
2013-04-15 05:10:00,32.6,27.1,28.82,SE,135,2.5,5.8,80,0.00,,,0.00,WUHU216HW,2013-04-15 10:10:00,
2013-04-15 05:15:00,32.8,27.3,28.82,North,0,2.5,5.8,80,0.00,,,0.00,WUHU216HW,2013-04-15 10:15:00,
2013-04-15 05:20:00,32.6,27.1,28.82,NW,315,4.3,5.8,80,0.00,,,0.00,WUHU216HW,2013-04-15 10:20:00,
2013-04-15 05:25:00,32.6,27.1,28.82,NNE,23,0.7,5.4,80,0.00,,,0.00,WUHU216HW,2013-04-15 10:25:00,
2013-04-15 05:30:00,32.6,27.1,28.82,SSW,203,1.8,6.7,80,0.00,,,0.00,WUHU216HW,2013-04-15 10:30:00,
2013-04-15 05:35:00,32.6,27.1,28.82,SSW,203,2.2,7.8,80,0.00,,,0.00,WUHU216HW,2013-04-15 10:35:00,
2013-04-15 05:40:00,32.6,27.1,28.82,North,0,4.0,7.8,80,0.00,,,0.00,WUHU216HW,2013-04-15 10:40:00,
2013-04-15 05:45:00,32.4,27.0,28.82,SSE,158,7.2,7.2,80,0.00,,,0.00,WUHU216HW,2013-04-15 10:45:00,
2013-04-15 05:50:00,32.4,27.0,28.82,ESE,113,1.1,7.2,80,0.00,,,0.00,WUHU216HW,2013-04-15 10:50:00,
2013-04-15 05:55:00,32.4,27.0,28.82,East,90,2.2,7.2,80,0.00,,,0.00,WUHU216HW,2013-04-15 10:55:00,
2013-04-15 06:00:00,32.4,27.0,28.82,SE,135,3.4,7.8,80,0.00,,,0.00,WUHU216HW,2013-04-15 11:00:00,
2013-04-15 06:05:00,32.4,26.6,28.82,SSW,203,0.7,7.8,79,0.00,,,0.00,WUHU216HW,2013-04-15 11:05:00,
2013-04-15 06:10:00,32.4,27.0,28.82,ESE,113,3.1,4.7,80,0.00,,,0.00,WUHU216HW,2013-04-15 11:10:00,
2013-04-15 06:15:00,32.4,27.0,28.82,NNE,23,1.8,7.6,80,0.00,,,0.00,WUHU216HW,2013-04-15 11:15:00,
2013-04-15 06:20:00,32.6,27.1,28.82,SSW,203,2.0,7.6,80,0.00,,,0.00,WUHU216HW,2013-04-15 11:20:00,
2013-04-15 06:25:00,32.4,27.0,28.82,WNW,293,2.2,2.5,80,0.00,,,0.00,WUHU216HW,2013-04-15 11:25:00,
2013-04-15 06:30:00,32.6,27.1,28.82,SE,135,2.7,3.1,80,0.00,,,0.00,WUHU216HW,2013-04-15 11:30:00,
2013-04-15 06:35:00,32.6,27.1,28.82,SE,135,4.0,4.0,80,0.00,,,0.00,WUHU216HW,2013-04-15 11:35:00,
2013-04-15 06:40:00,32.6,27.1,28.82,SSE,158,4.0,7.4,80,0.00,,,0.00,WUHU216HW,2013-04-15 11:40:00,
2013-04-15 06:45:00,32.6,27.1,28.83,WSW,248,3.8,7.4,80,0.00,,,0.00,WUHU216HW,2013-04-15 11:45:00,
2013-04-15 06:50:00,32.6,27.1,28.83,North,0,2.5,3.8,80,0.00,,,0.00,WUHU216HW,2013-04-15 11:50:00,
2013-04-15 06:55:00,32.6,27.1,28.83,NNW,338,3.4,5.8,80,0.00,,,0.00,WUHU216HW,2013-04-15 11:55:00,
2013-04-15 07:00:00,32.4,27.0,28.84,WSW,248,3.4,5.8,80,0.00,,,0.00,WUHU216HW,2013-04-15 12:00:00,
2013-04-15 07:05:00,32.6,27.1,28.84,North,0,2.5,3.4,80,0.00,,,0.00,WUHU216HW,2013-04-15 12:05:00,
2013-04-15 07:10:00,32.6,27.1,28.84,NNW,338,3.4,6.3,80,0.00,,,0.00,WUHU216HW,2013-04-15 12:10:00,
2013-04-15 07:15:00,32.8,27.3,28.84,NNW,338,0.4,6.3,80,0.00,,,0.00,WUHU216HW,2013-04-15 12:15:00,
2013-04-15 07:20:00,32.8,27.3,28.84,NNE,23,1.1,4.7,80,0.00,,,0.00,WUHU216HW,2013-04-15 12:20:00,
2013-04-15 07:25:00,32.8,27.3,28.84,SE,135,2.5,4.0,80,0.00,,,0.00,WUHU216HW,2013-04-15 12:25:00,
2013-04-15 07:30:00,32.9,27.5,28.84,WNW,293,4.3,4.3,80,0.00,,,0.00,WUHU216HW,2013-04-15 12:30:00,
2013-04-15 07:35:00,32.9,27.5,28.84,NE,45,2.2,4.9,80,0.00,,,0.00,WUHU216HW,2013-04-15 12:35:00,
2013-04-15 07:40:00,32.9,27.5,28.85,NE,45,1.8,4.9,80,0.00,,,0.00,WUHU216HW,2013-04-15 12:40:00,
2013-04-15 07:45:00,33.1,27.6,28.85,East,90,3.1,6.9,80,0.00,,,0.00,WUHU216HW,2013-04-15 12:45:00,
2013-04-15 07:50:00,33.1,27.6,28.85,NNW,338,2.0,6.9,80,0.00,,,0.00,WUHU216HW,2013-04-15 12:50:00,
2013-04-15 07:55:00,33.1,27.6,28.85,ESE,113,2.5,3.1,80,0.00,,,0.00,WUHU216HW,2013-04-15 12:55:00,
2013-04-15 08:01:00,33.3,27.8,28.86,East,90,0.2,7.4,80,0.00,,,0.00,WUHU216HW,2013-04-15 13:01:00,
2013-04-15 08:06:00,33.5,27.9,28.85,NNW,338,1.1,7.4,80,0.00,,,0.00,WUHU216HW,2013-04-15 13:06:00,
2013-04-15 08:11:00,33.5,27.9,28.86,WNW,293,4.9,5.4,80,0.00,,,0.00,WUHU216HW,2013-04-15 13:11:00,
2013-04-15 08:16:00,33.7,28.1,28.86,West,270,4.7,6.3,80,0.00,,,0.00,WUHU216HW,2013-04-15 13:16:00,
2013-04-15 08:21:00,33.8,28.3,28.86,WNW,293,3.1,6.3,80,0.00,,,0.00,WUHU216HW,2013-04-15 13:21:00,
2013-04-15 08:26:00,34.0,28.1,28.86,SSE,158,3.4,4.7,79,0.00,,,0.00,WUHU216HW,2013-04-15 13:26:00,
2013-04-15 08:32:00,34.0,28.1,28.86,North,0,3.6,6.7,79,0.00,,,0.00,WUHU216HW,2013-04-15 13:32:00,
2013-04-15 08:37:00,34.2,28.3,28.86,NE,45,4.0,6.7,79,0.00,,,0.00,WUHU216HW,2013-04-15 13:37:00,
2013-04-15 08:42:00,34.2,28.3,28.86,North,0,4.3,5.4,79,0.00,,,0.00,WUHU216HW,2013-04-15 13:42:00,
2013-04-15 08:47:00,34.4,28.4,28.86,WNW,293,3.6,5.4,79,0.00,,,0.00,WUHU216HW,2013-04-15 13:47:00,
2013-04-15 08:52:00,34.7,28.5,28.86,NNE,23,3.6,4.9,78,0.00,,,0.00,WUHU216HW,2013-04-15 13:52:00,
2013-04-15 08:57:00,34.9,28.7,28.86,WNW,293,3.4,4.9,78,0.00,,,0.00,WUHU216HW,2013-04-15 13:57:00,
2013-04-15 09:02:00,34.9,28.7,28.86,NNW,338,2.0,3.4,78,0.00,,,0.00,WUHU216HW,2013-04-15 14:02:00,
2013-04-15 09:07:00,34.9,28.7,28.86,North,0,4.0,5.4,78,0.00,,,0.00,WUHU216HW,2013-04-15 14:07:00,
2013-04-15 09:12:00,34.9,28.7,28.86,WNW,293,1.1,5.4,78,0.00,,,0.00,WUHU216HW,2013-04-15 14:12:00,
2013-04-15 09:17:00,35.1,28.9,28.86,NW,315,3.4,3.8,78,0.00,,,0.00,WUHU216HW,2013-04-15 14:17:00,
2013-04-15 09:22:00,35.1,28.9,28.87,North,0,0.7,4.5,78,0.00,,,0.00,WUHU216HW,2013-04-15 14:22:00,
2013-04-15 09:27:00,35.1,28.9,28.87,NNW,338,4.3,4.5,78,0.00,,,0.00,WUHU216HW,2013-04-15 14:27:00,
2013-04-15 09:32:00,35.3,29.1,28.87,South,180,3.4,4.3,78,0.00,,,0.00,WUHU216HW,2013-04-15 14:32:00,
2013-04-15 09:37:00,35.3,29.1,28.87,North,0,1.8,4.0,78,0.00,,,0.00,WUHU216HW,2013-04-15 14:37:00,
2013-04-15 09:42:00,35.6,29.4,28.87,West,270,7.4,7.4,78,0.00,,,0.00,WUHU216HW,2013-04-15 14:42:00,
2013-04-15 09:47:00,36.2,29.6,28.87,NW,315,5.4,7.4,77,0.00,,,0.00,WUHU216HW,2013-04-15 14:47:00,
2013-04-15 09:53:00,36.9,30.1,28.87,West,270,6.7,6.7,76,0.00,,,0.00,WUHU216HW,2013-04-15 14:53:00,
2013-04-15 09:58:00,36.9,30.1,28.87,West,270,4.0,6.7,76,0.00,,,0.00,WUHU216HW,2013-04-15 14:58:00,
2013-04-15 10:03:00,37.3,30.1,28.87,SSW,203,3.4,8.5,75,0.00,,,0.00,WUHU216HW,2013-04-15 15:03:00,
2013-04-15 10:08:00,37.4,30.2,28.88,NW,315,3.6,8.5,75,0.00,,,0.00,WUHU216HW,2013-04-15 15:08:00,
2013-04-15 10:13:00,37.8,30.2,28.88,North,0,2.5,6.5,74,0.00,,,0.00,WUHU216HW,2013-04-15 15:13:00,
2013-04-15 10:18:00,37.6,30.1,28.88,West,270,8.5,8.5,74,0.00,,,0.00,WUHU216HW,2013-04-15 15:18:00,
2013-04-15 10:23:00,37.8,30.2,28.89,WSW,248,1.8,8.5,74,0.00,,,0.00,WUHU216HW,2013-04-15 15:23:00,
2013-04-15 10:28:00,37.8,30.2,28.89,NNE,23,4.0,6.7,74,0.00,,,0.00,WUHU216HW,2013-04-15 15:28:00,
2013-04-15 10:33:00,37.8,30.0,28.90,NNW,338,7.2,7.2,73,0.00,,,0.00,WUHU216HW,2013-04-15 15:33:00,
2013-04-15 10:38:00,38.0,30.1,28.90,WNW,293,3.4,7.2,73,0.00,,,0.00,WUHU216HW,2013-04-15 15:38:00,
2013-04-15 10:43:00,37.8,30.0,28.91,NW,315,5.4,7.8,73,0.00,,,0.00,WUHU216HW,2013-04-15 15:43:00,
2013-04-15 10:48:00,37.6,30.1,28.91,WNW,293,4.0,7.8,74,0.00,,,0.00,WUHU216HW,2013-04-15 15:48:00,
2013-04-15 10:53:00,37.8,30.2,28.92,WNW,293,6.5,6.5,74,0.00,,,0.00,WUHU216HW,2013-04-15 15:53:00,
2013-04-15 10:58:00,37.6,30.1,28.92,NNE,23,4.0,6.5,74,0.00,,,0.00,WUHU216HW,2013-04-15 15:58:00,
2013-04-15 11:03:00,37.6,29.8,28.92,WNW,293,6.7,6.7,73,0.00,,,0.00,WUHU216HW,2013-04-15 16:03:00,
2013-04-15 11:08:00,37.8,30.0,28.92,NW,315,10.1,10.1,73,0.00,,,0.00,WUHU216HW,2013-04-15 16:08:00,
2013-04-15 11:13:00,37.8,29.6,28.93,WNW,293,7.6,10.1,72,0.00,,,0.00,WUHU216HW,2013-04-15 16:13:00,
2013-04-15 11:18:00,37.8,29.6,28.93,West,270,6.9,7.6,72,0.00,,,0.00,WUHU216HW,2013-04-15 16:18:00,
2013-04-15 11:23:00,37.8,30.0,28.93,WNW,293,4.0,9.6,73,0.00,,,0.00,WUHU216HW,2013-04-15 16:23:00,
2013-04-15 11:28:00,37.8,30.0,28.94,NNW,338,3.8,9.6,73,0.00,,,0.00,WUHU216HW,2013-04-15 16:28:00,
2013-04-15 11:33:00,37.8,30.0,28.94,WNW,293,6.3,6.5,73,0.00,,,0.00,WUHU216HW,2013-04-15 16:33:00,
2013-04-15 11:39:00,37.8,30.0,28.94,ENE,68,6.3,6.5,73,0.00,,,0.00,WUHU216HW,2013-04-15 16:39:00,
2013-04-15 11:44:00,37.8,30.0,28.94,NW,315,2.5,9.8,73,0.00,,,0.00,WUHU216HW,2013-04-15 16:44:00,
2013-04-15 11:49:00,38.2,30.2,28.95,SW,225,6.0,9.8,73,0.00,,,0.00,WUHU216HW,2013-04-15 16:49:00,
2013-04-15 11:54:00,38.2,30.0,28.95,WNW,293,4.7,6.3,72,0.00,,,0.00,WUHU216HW,2013-04-15 16:54:00,
2013-04-15 11:59:00,38.3,30.1,28.95,NNW,338,2.7,5.4,72,0.00,,,0.00,WUHU216HW,2013-04-15 16:59:00,
2013-04-15 12:04:00,38.5,30.2,28.96,North,0,0.0,4.0,72,0.00,,,0.00,WUHU216HW,2013-04-15 17:04:00,
2013-04-15 12:09:00,38.9,30.2,28.96,West,270,5.6,5.6,71,0.00,,,0.00,WUHU216HW,2013-04-15 17:09:00,
2013-04-15 12:14:00,39.2,30.2,28.97,WSW,248,3.4,5.6,70,0.00,,,0.00,WUHU216HW,2013-04-15 17:14:00,
2013-04-15 12:19:00,38.7,29.8,28.96,WNW,293,8.9,12.5,70,0.00,,,0.00,WUHU216HW,2013-04-15 17:19:00,
2013-04-15 12:21:00,38.7,29.8,28.97,NW,315,6.5,12.5,70,0.00,,,0.00,WUHU216HW,2013-04-15 17:21:00,
2013-04-15 12:25:00,38.3,29.8,28.97,WNW,293,2.7,12.5,71,0.00,,,0.00,WUHU216HW,2013-04-15 17:25:00,
2013-04-15 12:30:00,38.3,29.8,28.97,West,270,3.1,8.5,71,0.00,,,0.00,WUHU216HW,2013-04-15 17:30:00,
2013-04-15 12:35:00,38.5,30.0,28.97,West,270,9.6,11.0,71,0.00,,,0.00,WUHU216HW,2013-04-15 17:35:00,
2013-04-15 12:40:00,38.5,30.0,28.97,WNW,293,5.1,11.0,71,0.00,,,0.00,WUHU216HW,2013-04-15 17:40:00,
2013-04-15 12:45:00,39.1,30.4,28.97,NW,315,4.0,7.6,71,0.00,,,0.00,WUHU216HW,2013-04-15 17:45:00,
2013-04-15 12:50:00,39.1,30.1,28.97,WNW,293,5.6,10.3,70,0.00,,,0.00,WUHU216HW,2013-04-15 17:50:00,
2013-04-15 12:55:00,38.9,30.2,28.97,WNW,293,6.3,10.3,71,0.00,,,0.00,WUHU216HW,2013-04-15 17:55:00,
2013-04-15 13:00:00,38.9,30.2,28.97,WNW,293,3.4,8.3,71,0.00,,,0.00,WUHU216HW,2013-04-15 18:00:00,
2013-04-15 13:05:00,39.2,30.6,28.98,NNW,338,5.4,8.1,71,0.00,,,0.00,WUHU216HW,2013-04-15 18:05:00,
2013-04-15 13:10:00,39.1,30.1,28.98,West,270,10.1,10.1,70,0.00,,,0.00,WUHU216HW,2013-04-15 18:10:00,
2013-04-15 13:15:00,39.4,30.8,28.99,West,270,8.1,10.1,71,0.00,,,0.00,WUHU216HW,2013-04-15 18:15:00,
2013-04-15 13:20:00,39.4,30.4,28.99,WSW,248,8.5,11.4,70,0.00,,,0.00,WUHU216HW,2013-04-15 18:20:00,
2013-04-15 13:25:00,40.0,31.0,28.99,WNW,293,8.5,8.5,70,0.00,,,0.00,WUHU216HW,2013-04-15 18:25:00,
2013-04-15 13:29:00,40.1,30.4,29.00,SW,225,11.4,11.4,68,0.00,,,0.00,WUHU216HW,2013-04-15 18:29:00,
2013-04-15 13:34:00,40.1,30.4,29.00,West,270,8.5,11.4,68,0.00,,,0.00,WUHU216HW,2013-04-15 18:34:00,
2013-04-15 13:39:00,40.3,30.2,29.01,WNW,293,6.9,9.8,67,0.00,,,0.00,WUHU216HW,2013-04-15 18:39:00,
2013-04-15 13:44:00,40.3,30.6,29.00,West,270,4.0,9.8,68,0.00,,,0.00,WUHU216HW,2013-04-15 18:44:00,
2013-04-15 13:49:00,40.3,30.6,29.01,WSW,248,6.3,9.2,68,0.00,,,0.00,WUHU216HW,2013-04-15 18:49:00,
2013-04-15 13:54:00,40.0,30.3,29.01,West,270,8.7,11.2,68,0.00,,,0.00,WUHU216HW,2013-04-15 18:54:00,
2013-04-15 13:59:00,40.0,30.6,29.01,WSW,248,8.3,11.4,69,0.00,,,0.00,WUHU216HW,2013-04-15 18:59:00,
2013-04-15 14:04:00,40.1,30.8,29.01,WNW,293,6.7,11.4,69,0.00,,,0.00,WUHU216HW,2013-04-15 19:04:00,
2013-04-15 14:09:00,40.3,30.6,29.02,WNW,293,10.5,10.5,68,0.00,,,0.00,WUHU216HW,2013-04-15 19:09:00,
2013-04-15 14:14:00,40.7,31.0,29.02,West,270,8.1,12.3,68,0.00,,,0.00,WUHU216HW,2013-04-15 19:14:00,
2013-04-15 14:19:00,41.0,30.9,29.02,West,270,10.5,12.3,67,0.00,,,0.00,WUHU216HW,2013-04-15 19:19:00,
2013-04-15 14:24:00,41.4,31.2,29.02,WNW,293,8.5,10.5,67,0.00,,,0.00,WUHU216HW,2013-04-15 19:24:00,
2013-04-15 14:29:00,41.6,31.4,29.02,WNW,293,10.5,10.5,67,0.00,,,0.00,WUHU216HW,2013-04-15 19:29:00,
2013-04-15 14:35:00,41.4,30.9,29.03,WSW,248,8.5,11.4,66,0.00,,,0.00,WUHU216HW,2013-04-15 19:35:00,
2013-04-15 14:40:00,41.6,31.1,29.03,WSW,248,9.8,11.4,66,0.00,,,0.00,WUHU216HW,2013-04-15 19:40:00,
2013-04-15 14:45:00,41.9,31.8,29.03,West,270,8.1,9.8,67,0.00,,,0.00,WUHU216HW,2013-04-15 19:45:00,
2013-04-15 14:50:00,41.9,31.4,29.04,WSW,248,6.9,9.8,66,0.00,,,0.00,WUHU216HW,2013-04-15 19:50:00,
2013-04-15 14:57:00,41.6,31.1,29.04,West,270,9.2,11.2,66,0.00,,,0.00,WUHU216HW,2013-04-15 19:57:00,
2013-04-15 15:01:00,41.4,31.2,29.04,NNW,338,6.5,10.5,67,0.00,,,0.00,WUHU216HW,2013-04-15 20:01:00,
2013-04-15 15:02:00,41.4,31.2,29.04,West,270,6.7,10.5,67,0.00,,,0.00,WUHU216HW,2013-04-15 20:02:00,
2013-04-15 15:07:00,41.6,31.4,29.04,WNW,293,7.6,10.5,67,0.00,,,0.00,WUHU216HW,2013-04-15 20:07:00,
2013-04-15 15:12:00,41.6,31.4,29.04,WNW,293,10.5,10.5,67,0.00,,,0.00,WUHU216HW,2013-04-15 20:12:00,
2013-04-15 15:17:00,41.6,31.4,29.05,West,270,5.4,10.5,67,0.00,,,0.00,WUHU216HW,2013-04-15 20:17:00,
2013-04-15 15:22:00,41.6,31.1,29.05,WNW,293,10.5,10.5,66,0.00,,,0.00,WUHU216HW,2013-04-15 20:22:00,
2013-04-15 15:27:00,41.4,30.9,29.05,WNW,293,9.2,10.5,66,0.00,,,0.00,WUHU216HW,2013-04-15 20:27:00,
2013-04-15 15:32:00,41.4,30.9,29.05,West,270,11.4,11.4,66,0.00,,,0.00,WUHU216HW,2013-04-15 20:32:00,
2013-04-15 15:37:00,41.0,30.9,29.05,West,270,8.7,11.4,67,0.00,,,0.00,WUHU216HW,2013-04-15 20:37:00,
2013-04-15 15:42:00,40.7,30.5,29.06,WNW,293,12.8,12.8,67,0.00,,,0.00,WUHU216HW,2013-04-15 20:42:00,
2013-04-15 15:47:00,40.3,30.2,29.06,West,270,6.7,12.8,67,0.00,,,0.00,WUHU216HW,2013-04-15 20:47:00,
2013-04-15 15:52:00,40.0,29.8,29.06,SW,225,7.4,10.5,67,0.00,,,0.00,WUHU216HW,2013-04-15 20:52:00,
2013-04-15 15:57:00,39.8,29.6,29.06,WNW,293,12.8,12.8,67,0.00,,,0.00,WUHU216HW,2013-04-15 20:57:00,
2013-04-15 16:02:00,39.6,29.9,29.07,WSW,248,7.2,12.8,68,0.00,,,0.00,WUHU216HW,2013-04-15 21:02:00,
2013-04-15 16:07:00,39.8,30.1,29.07,WNW,293,5.6,11.2,68,0.00,,,0.00,WUHU216HW,2013-04-15 21:07:00,
2013-04-15 16:12:00,40.1,30.4,29.07,WNW,293,7.4,10.7,68,0.00,,,0.00,WUHU216HW,2013-04-15 21:12:00,
2013-04-15 16:17:00,40.5,30.8,29.07,West,270,7.6,10.7,68,0.00,,,0.00,WUHU216HW,2013-04-15 21:17:00,
2013-04-15 16:22:00,40.7,31.0,29.08,West,270,5.4,8.3,68,0.00,,,0.00,WUHU216HW,2013-04-15 21:22:00,
2013-04-15 16:27:00,41.0,31.3,29.08,WSW,248,5.8,8.3,68,0.00,,,0.00,WUHU216HW,2013-04-15 21:27:00,
2013-04-15 16:32:00,41.6,31.4,29.08,West,270,6.3,8.7,67,0.00,,,0.00,WUHU216HW,2013-04-15 21:32:00,
2013-04-15 16:37:00,41.6,31.4,29.08,WNW,293,9.8,9.8,67,0.00,,,0.00,WUHU216HW,2013-04-15 21:37:00,
2013-04-15 16:42:00,41.4,31.2,29.08,WNW,293,8.9,9.8,67,0.00,,,0.00,WUHU216HW,2013-04-15 21:42:00,
2013-04-15 16:47:00,41.8,31.6,29.08,West,270,5.1,10.5,67,0.00,,,0.00,WUHU216HW,2013-04-15 21:47:00,
2013-04-15 16:52:00,41.8,31.6,29.08,WNW,293,4.7,10.5,67,0.00,,,0.00,WUHU216HW,2013-04-15 21:52:00,
2013-04-15 16:57:00,41.9,31.4,29.08,WNW,293,7.4,7.4,66,0.00,,,0.00,WUHU216HW,2013-04-15 21:57:00,
2013-04-15 17:02:00,41.6,31.1,29.09,West,270,8.1,9.6,66,0.00,,,0.00,WUHU216HW,2013-04-15 22:02:00,
2013-04-15 17:07:00,41.4,31.2,29.09,WNW,293,5.8,9.6,67,0.00,,,0.00,WUHU216HW,2013-04-15 22:07:00,
2013-04-15 17:12:00,41.2,30.7,29.10,WNW,293,9.8,9.8,66,0.00,,,0.00,WUHU216HW,2013-04-15 22:12:00,
2013-04-15 17:17:00,41.0,30.9,29.10,West,270,9.8,9.8,67,0.00,,,0.00,WUHU216HW,2013-04-15 22:17:00,
2013-04-15 17:22:00,40.7,30.5,29.10,WNW,293,9.2,9.8,67,0.00,,,0.00,WUHU216HW,2013-04-15 22:22:00,
2013-04-15 17:27:00,40.7,30.5,29.10,West,270,4.9,9.2,67,0.00,,,0.00,WUHU216HW,2013-04-15 22:27:00,
2013-04-15 17:32:00,40.9,30.7,29.10,West,270,6.9,8.3,67,0.00,,,0.00,WUHU216HW,2013-04-15 22:32:00,
2013-04-15 17:37:00,40.9,30.7,29.10,WNW,293,4.7,7.4,67,0.00,,,0.00,WUHU216HW,2013-04-15 22:37:00,
2013-04-15 17:42:00,41.0,30.9,29.11,West,270,6.7,8.5,67,0.00,,,0.00,WUHU216HW,2013-04-15 22:42:00,
2013-04-15 17:47:00,40.7,30.5,29.11,West,270,5.8,8.5,67,0.00,,,0.00,WUHU216HW,2013-04-15 22:47:00,
2013-04-15 17:52:00,40.7,30.5,29.10,WNW,293,3.4,8.3,67,0.00,,,0.00,WUHU216HW,2013-04-15 22:52:00,
2013-04-15 17:57:00,40.7,30.5,29.11,WSW,248,7.4,7.4,67,0.00,,,0.00,WUHU216HW,2013-04-15 22:57:00,
2013-04-15 18:02:00,40.7,30.5,29.11,West,270,5.4,7.8,67,0.00,,,0.00,WUHU216HW,2013-04-15 23:02:00,
2013-04-15 18:07:00,40.5,30.3,29.12,WNW,293,6.9,7.8,67,0.00,,,0.00,WUHU216HW,2013-04-15 23:07:00,
2013-04-15 18:12:00,40.1,30.0,29.12,WNW,293,5.6,7.4,67,0.00,,,0.00,WUHU216HW,2013-04-15 23:12:00,
2013-04-15 18:17:00,40.0,29.8,29.13,WNW,293,6.9,7.6,67,0.00,,,0.00,WUHU216HW,2013-04-15 23:17:00,
2013-04-15 18:22:00,40.0,29.8,29.12,WNW,293,6.9,7.6,67,0.00,,,0.00,WUHU216HW,2013-04-15 23:22:00,
2013-04-15 18:27:00,39.8,29.6,29.12,WSW,248,4.0,6.9,67,0.00,,,0.00,WUHU216HW,2013-04-15 23:27:00,
2013-04-15 18:32:00,39.6,29.9,29.13,West,270,4.5,6.9,68,0.00,,,0.00,WUHU216HW,2013-04-15 23:32:00,
2013-04-15 18:37:00,39.6,29.9,29.13,West,270,4.7,6.3,68,0.00,,,0.00,WUHU216HW,2013-04-15 23:37:00,
2013-04-15 18:42:00,39.4,29.7,29.13,West,270,6.9,7.6,68,0.00,,,0.00,WUHU216HW,2013-04-15 23:42:00,
2013-04-15 18:47:00,39.2,29.5,29.14,West,270,2.9,7.6,68,0.00,,,0.00,WUHU216HW,2013-04-15 23:47:00,
2013-04-15 18:52:00,39.1,29.7,29.14,West,270,5.1,6.7,69,0.00,,,0.00,WUHU216HW,2013-04-15 23:52:00,
2013-04-15 18:57:00,38.9,29.5,29.15,West,270,6.9,6.9,69,0.00,,,0.00,WUHU216HW,2013-04-15 23:57:00,
2013-04-15 19:02:00,38.7,29.3,29.15,West,270,6.9,6.9,69,0.00,,,0.00,WUHU216HW,2013-04-16 00:02:00,
2013-04-15 19:07:00,38.5,29.6,29.15,WNW,293,5.4,6.9,70,0.00,,,0.00,WUHU216HW,2013-04-16 00:07:00,
2013-04-15 19:12:00,38.3,29.4,29.15,WSW,248,5.4,6.9,70,0.00,,,0.00,WUHU216HW,2013-04-16 00:12:00,
2013-04-15 19:17:00,38.3,29.8,29.15,West,270,5.4,6.9,71,0.00,,,0.00,WUHU216HW,2013-04-16 00:17:00,
2013-04-15 19:22:00,38.2,29.6,29.15,West,270,4.7,6.7,71,0.00,,,0.00,WUHU216HW,2013-04-16 00:22:00,
2013-04-15 19:27:00,38.2,29.6,29.15,WNW,293,6.3,6.3,71,0.00,,,0.00,WUHU216HW,2013-04-16 00:27:00,
2013-04-15 19:32:00,38.0,29.4,29.15,West,270,3.4,6.3,71,0.00,,,0.00,WUHU216HW,2013-04-16 00:32:00,
2013-04-15 19:37:00,37.8,29.3,29.15,WNW,293,3.6,4.5,71,0.00,,,0.00,WUHU216HW,2013-04-16 00:37:00,
2013-04-15 19:42:00,37.8,29.3,29.15,West,270,1.8,4.5,71,0.00,,,0.00,WUHU216HW,2013-04-16 00:42:00,
2013-04-15 19:47:00,37.8,29.3,29.16,WNW,293,3.8,4.5,71,0.00,,,0.00,WUHU216HW,2013-04-16 00:47:00,
2013-04-15 19:52:00,37.8,29.3,29.16,WSW,248,2.0,4.5,71,0.00,,,0.00,WUHU216HW,2013-04-16 00:52:00,
2013-04-15 19:57:00,37.6,29.4,29.16,WSW,248,4.7,5.1,72,0.00,,,0.00,WUHU216HW,2013-04-16 00:57:00,
2013-04-15 20:02:00,37.4,29.3,29.16,West,270,6.0,6.0,72,0.00,,,0.00,WUHU216HW,2013-04-16 01:02:00,
2013-04-15 20:07:00,37.4,29.3,29.16,West,270,6.3,8.5,72,0.00,,,0.00,WUHU216HW,2013-04-16 01:07:00,
2013-04-15 20:12:00,37.3,29.1,29.16,WSW,248,5.1,8.5,72,0.00,,,0.00,WUHU216HW,2013-04-16 01:12:00,
2013-04-15 20:17:00,37.3,29.1,29.16,West,270,6.0,6.9,72,0.00,,,0.00,WUHU216HW,2013-04-16 01:17:00,
2013-04-15 20:22:00,37.1,28.9,29.15,WNW,293,4.3,6.9,72,0.00,,,0.00,WUHU216HW,2013-04-16 01:22:00,
2013-04-15 20:27:00,36.9,29.1,29.16,West,270,3.4,6.3,73,0.00,,,0.00,WUHU216HW,2013-04-16 01:27:00,
2013-04-15 20:32:00,36.7,28.9,29.16,West,270,6.9,6.9,73,0.00,,,0.00,WUHU216HW,2013-04-16 01:32:00,
2013-04-15 20:37:00,36.5,28.7,29.17,WNW,293,6.3,9.4,73,0.00,,,0.00,WUHU216HW,2013-04-16 01:37:00,
2013-04-15 20:42:00,36.5,29.0,29.17,West,270,3.4,9.4,74,0.00,,,0.00,WUHU216HW,2013-04-16 01:42:00,
2013-04-15 20:47:00,36.5,29.0,29.17,WNW,293,3.8,6.5,74,0.00,,,0.00,WUHU216HW,2013-04-16 01:47:00,
2013-04-15 20:52:00,36.4,28.5,29.17,West,270,2.0,6.5,73,0.00,,,0.00,WUHU216HW,2013-04-16 01:52:00,
2013-04-15 20:57:00,36.4,28.5,29.17,WNW,293,4.0,6.3,73,0.00,,,0.00,WUHU216HW,2013-04-16 01:57:00,
2013-04-15 21:02:00,36.0,28.2,29.17,NW,315,3.8,6.7,73,0.00,,,0.00,WUHU216HW,2013-04-16 02:02:00,
2013-04-15 21:07:00,35.8,28.0,29.17,WSW,248,4.3,6.7,73,0.00,,,0.00,WUHU216HW,2013-04-16 02:07:00,
2013-04-15 21:12:00,35.8,28.3,29.18,WNW,293,5.4,6.3,74,0.00,,,0.00,WUHU216HW,2013-04-16 02:12:00,
2013-04-15 21:17:00,35.6,28.1,29.18,WNW,293,5.1,7.2,74,0.00,,,0.00,WUHU216HW,2013-04-16 02:17:00,
2013-04-15 21:22:00,35.6,28.4,29.19,WSW,248,4.0,9.4,75,0.00,,,0.00,WUHU216HW,2013-04-16 02:22:00,
2013-04-15 21:27:00,35.6,28.4,29.20,West,270,6.9,9.4,75,0.00,,,0.00,WUHU216HW,2013-04-16 02:27:00,
2013-04-15 21:32:00,35.6,28.4,29.20,SW,225,5.1,8.5,75,0.00,,,0.00,WUHU216HW,2013-04-16 02:32:00,
2013-04-15 21:37:00,35.6,28.4,29.20,WNW,293,3.8,6.3,75,0.00,,,0.00,WUHU216HW,2013-04-16 02:37:00,
2013-04-15 21:42:00,35.5,28.3,29.20,SW,225,5.4,7.4,75,0.00,,,0.00,WUHU216HW,2013-04-16 02:42:00,
2013-04-15 21:47:00,35.5,28.3,29.20,WSW,248,4.7,7.4,75,0.00,,,0.00,WUHU216HW,2013-04-16 02:47:00,
2013-04-15 21:52:00,35.3,28.5,29.21,WNW,293,8.9,8.9,76,0.00,,,0.00,WUHU216HW,2013-04-16 02:52:00,
2013-04-15 21:57:00,35.3,28.5,29.21,West,270,4.3,8.9,76,0.00,,,0.00,WUHU216HW,2013-04-16 02:57:00,
2013-04-15 22:02:00,35.5,28.6,29.22,SSW,203,4.0,6.9,76,0.00,,,0.00,WUHU216HW,2013-04-16 03:02:00,
2013-04-15 22:07:00,35.6,28.8,29.22,WNW,293,5.4,6.9,76,0.00,,,0.00,WUHU216HW,2013-04-16 03:07:00,
2013-04-15 22:12:00,35.6,28.8,29.22,WSW,248,3.4,6.3,76,0.00,,,0.00,WUHU216HW,2013-04-16 03:12:00,
2013-04-15 22:17:00,35.8,29.0,29.22,WNW,293,4.9,6.9,76,0.00,,,0.00,WUHU216HW,2013-04-16 03:17:00,
2013-04-15 22:22:00,35.8,29.0,29.23,NW,315,5.4,7.2,76,0.00,,,0.00,WUHU216HW,2013-04-16 03:22:00,
2013-04-15 22:27:00,36.0,29.2,29.22,WSW,248,2.9,7.2,76,0.00,,,0.00,WUHU216HW,2013-04-16 03:27:00,
2013-04-15 22:32:00,36.0,29.2,29.23,WSW,248,3.8,6.9,76,0.00,,,0.00,WUHU216HW,2013-04-16 03:32:00,
2013-04-15 22:37:00,36.0,29.2,29.23,West,270,4.0,5.4,76,0.00,,,0.00,WUHU216HW,2013-04-16 03:37:00,
2013-04-15 22:42:00,36.0,28.8,29.23,West,270,8.9,10.1,75,0.00,,,0.00,WUHU216HW,2013-04-16 03:42:00,
2013-04-15 22:47:00,36.0,28.8,29.23,SW,225,5.8,10.1,75,0.00,,,0.00,WUHU216HW,2013-04-16 03:47:00,
2013-04-15 22:52:00,36.0,28.8,29.23,West,270,4.7,7.6,75,0.00,,,0.00,WUHU216HW,2013-04-16 03:52:00,
2013-04-15 22:57:00,36.0,28.8,29.23,West,270,4.7,8.3,75,0.00,,,0.00,WUHU216HW,2013-04-16 03:57:00,
2013-04-15 23:00:00,36.0,28.8,29.24,WNW,293,8.3,8.3,75,0.00,,,0.00,WUHU216HW,2013-04-16 04:00:00,
2013-04-15 23:01:00,36.0,28.8,29.24,WNW,293,8.3,8.3,75,0.00,,,0.00,WUHU216HW,2013-04-16 04:01:00,
2013-04-15 23:06:00,36.0,28.8,29.24,SSW,203,5.8,8.3,75,0.00,,,0.00,WUHU216HW,2013-04-16 04:06:00,
2013-04-15 23:11:00,36.0,28.8,29.24,West,270,7.6,7.6,75,0.00,,,0.00,WUHU216HW,2013-04-16 04:11:00,
2013-04-15 23:16:00,36.0,28.8,29.25,WSW,248,5.8,7.6,75,0.00,,,0.00,WUHU216HW,2013-04-16 04:16:00,
2013-04-15 23:21:00,36.0,28.8,29.24,WNW,293,5.4,10.1,75,0.00,,,0.00,WUHU216HW,2013-04-16 04:21:00,
2013-04-15 23:26:00,36.0,28.8,29.24,West,270,4.0,10.1,75,0.00,,,0.00,WUHU216HW,2013-04-16 04:26:00,
2013-04-15 23:31:00,36.0,28.8,29.24,WNW,293,3.8,7.8,75,0.00,,,0.00,WUHU216HW,2013-04-16 04:31:00,
2013-04-15 23:36:00,36.0,29.2,29.24,West,270,8.1,8.7,76,0.00,,,0.00,WUHU216HW,2013-04-16 04:36:00,
2013-04-15 23:41:00,36.0,29.2,29.25,West,270,10.5,10.5,76,0.00,,,0.00,WUHU216HW,2013-04-16 04:41:00,
2013-04-15 23:46:00,36.0,28.8,29.25,West,270,7.8,10.5,75,0.00,,,0.00,WUHU216HW,2013-04-16 04:46:00,
2013-04-15 23:51:00,35.8,28.6,29.26,West,270,13.4,13.4,75,0.00,,,0.00,WUHU216HW,2013-04-16 04:51:00,
2013-04-15 23:56:00,35.8,28.6,29.26,NW,315,4.7,14.3,75,0.00,,,0.00,WUHU216HW,2013-04-16 04:56:00,